createdAt,value
2024-01-16T00:00:06.608Z,51.07
2024-01-16T00:01:38.708Z,51.51
2024-01-16T00:03:10.313Z,51.26
2024-01-16T00:04:42.201Z,51.98
2024-01-16T00:06:14.048Z,51.73
2024-01-16T00:07:45.629Z,51.69
2024-01-16T00:09:17.218Z,51.77
2024-01-16T00:10:48.744Z,51.03
2024-01-16T00:12:20.297Z,51.23
2024-01-16T00:13:51.929Z,51.07
2024-01-16T00:15:23.604Z,50.99
2024-01-16T00:16:55.120Z,50.88
2024-01-16T00:18:27.013Z,51.49
2024-01-16T00:20:02.016Z,51.30
2024-01-16T00:21:33.808Z,51.05
2024-01-16T00:23:05.394Z,51.66
2024-01-16T00:24:37.094Z,51.40
2024-01-16T00:26:08.758Z,51.06
2024-01-16T00:27:40.498Z,51.16
2024-01-16T00:29:13.848Z,51.28
2024-01-16T00:30:45.862Z,51.11
2024-01-16T00:32:17.764Z,51.06
2024-01-16T00:33:49.998Z,51.52
2024-01-16T00:35:21.688Z,51.40
2024-01-16T00:36:53.462Z,51.64
2024-01-16T00:38:25.201Z,51.00
2024-01-16T00:39:57.094Z,51.29
2024-01-16T00:41:28.742Z,51.57
2024-01-16T00:43:00.364Z,51.45
2024-01-16T00:44:32.011Z,51.10
2024-01-16T00:46:04.147Z,51.52
2024-01-16T00:47:35.832Z,51.38
2024-01-16T00:49:09.056Z,51.41
2024-01-16T00:50:40.818Z,51.54
2024-01-16T00:52:12.643Z,51.77
2024-01-16T00:53:44.749Z,51.68
2024-01-16T00:55:16.472Z,51.25
2024-01-16T00:56:48.162Z,51.61
2024-01-16T00:58:19.837Z,51.27
2024-01-16T00:59:51.554Z,51.22
2024-01-16T01:01:23.393Z,51.28
2024-01-16T01:02:55.705Z,51.45
2024-01-16T01:04:27.461Z,51.80
2024-01-16T01:05:59.480Z,51.36
2024-01-16T01:07:31.124Z,51.72
2024-01-16T01:09:04.293Z,51.44
2024-01-16T01:10:36.165Z,52.07
2024-01-16T01:12:07.798Z,52.47
2024-01-16T01:13:39.626Z,52.52
2024-01-16T01:15:11.908Z,52.47
2024-01-16T01:16:43.552Z,52.35
2024-01-16T01:18:15.324Z,52.45
2024-01-16T01:19:47.475Z,51.96
2024-01-16T01:21:19.064Z,51.97
2024-01-16T01:22:50.864Z,52.17
2024-01-16T01:24:22.459Z,51.95
2024-01-16T01:25:54.026Z,52.02
2024-01-16T01:27:26.322Z,52.07
2024-01-16T01:28:57.859Z,51.92
2024-01-16T01:30:29.595Z,52.23
2024-01-16T01:32:01.308Z,51.93
2024-01-16T01:33:32.951Z,51.90
2024-01-16T01:35:04.917Z,51.76
2024-01-16T01:36:36.490Z,51.80
2024-01-16T01:38:09.600Z,51.48
2024-01-16T01:39:41.266Z,51.61
2024-01-16T01:41:16.114Z,51.85
2024-01-16T01:42:47.741Z,52.14
2024-01-16T01:44:19.264Z,51.82
2024-01-16T01:46:09.593Z,52.19
2024-01-16T01:47:41.346Z,51.85
2024-01-16T01:49:13.642Z,52.07
2024-01-16T01:50:45.401Z,52.31
2024-01-16T01:52:17.534Z,52.12
2024-01-16T01:53:50.118Z,52.00
2024-01-16T01:55:21.727Z,52.21
2024-01-16T01:56:53.380Z,52.08
2024-01-16T01:58:25.258Z,52.44
2024-01-16T01:59:57.012Z,52.38
2024-01-16T02:01:29.280Z,51.96
2024-01-16T02:03:01.483Z,52.47
2024-01-16T02:04:33.381Z,52.03
2024-01-16T02:06:05.181Z,52.23
2024-01-16T02:07:36.934Z,52.09
2024-01-16T02:09:09.118Z,52.47
2024-01-16T02:10:40.657Z,52.28
2024-01-16T02:12:12.294Z,52.53
2024-01-16T02:13:43.972Z,52.31
2024-01-16T02:15:15.654Z,52.17
2024-01-16T02:16:47.164Z,52.61
2024-01-16T02:18:19.110Z,52.54
2024-01-16T02:19:50.981Z,52.47
2024-01-16T02:21:22.927Z,52.46
2024-01-16T02:22:54.566Z,52.65
2024-01-16T02:24:26.134Z,52.18
2024-01-16T02:25:57.967Z,52.23
2024-01-16T02:27:29.543Z,52.04
2024-01-16T02:29:05.830Z,52.19
2024-01-16T02:30:37.498Z,52.40
2024-01-16T02:32:09.394Z,52.37
2024-01-16T02:33:41.166Z,52.30
2024-01-16T02:35:12.822Z,52.39
2024-01-16T02:36:44.715Z,52.32
2024-01-16T02:38:16.469Z,52.32
2024-01-16T02:39:48.043Z,52.42
2024-01-16T02:41:19.803Z,52.26
2024-01-16T02:42:51.455Z,52.20
2024-01-16T02:44:23.190Z,52.63
2024-01-16T02:45:55.202Z,52.79
2024-01-16T02:47:26.858Z,52.88
2024-01-16T02:48:58.523Z,52.88
2024-01-16T02:50:30.112Z,53.41
2024-01-16T02:52:01.698Z,53.04
2024-01-16T02:53:33.331Z,53.11
2024-01-16T02:55:06.067Z,53.40
2024-01-16T02:56:37.768Z,53.26
2024-01-16T02:58:09.324Z,52.89
2024-01-16T02:59:40.955Z,52.68
2024-01-16T03:01:12.763Z,53.17
2024-01-16T03:02:45.277Z,52.75
2024-01-16T03:04:16.913Z,52.52
2024-01-16T03:05:48.761Z,52.67
2024-01-16T03:07:20.489Z,52.50
2024-01-16T03:08:52.591Z,52.64
2024-01-16T03:10:24.163Z,52.48
2024-01-16T03:11:55.898Z,52.58
2024-01-16T03:13:27.543Z,52.71
2024-01-16T03:14:59.038Z,52.56
2024-01-16T03:16:31.339Z,52.68
2024-01-16T03:18:03.107Z,52.82
2024-01-16T03:19:35.227Z,53.05
2024-01-16T03:21:07.082Z,53.14
2024-01-16T03:22:39.232Z,53.00
2024-01-16T03:24:11.973Z,52.97
2024-01-16T03:25:43.950Z,53.20
2024-01-16T03:27:15.565Z,53.33
2024-01-16T03:28:47.160Z,53.21
2024-01-16T03:30:18.980Z,53.28
2024-01-16T03:31:50.747Z,52.99
2024-01-16T03:33:22.790Z,53.24
2024-01-16T03:34:54.427Z,53.24
2024-01-16T03:36:25.972Z,53.04
2024-01-16T03:37:57.627Z,53.53
2024-01-16T03:39:29.352Z,53.83
2024-01-16T03:41:00.876Z,53.84
2024-01-16T03:42:32.473Z,53.75
2024-01-16T03:44:04.117Z,53.84
2024-01-16T03:45:35.706Z,53.30
2024-01-16T03:47:07.789Z,53.14
2024-01-16T03:48:39.502Z,53.83
2024-01-16T03:50:11.547Z,53.83
2024-01-16T03:51:47.659Z,54.03
2024-01-16T03:53:19.400Z,53.85
2024-01-16T03:54:51.153Z,53.54
2024-01-16T03:56:23.220Z,53.72
2024-01-16T03:57:54.968Z,54.22
2024-01-16T03:59:26.601Z,53.61
2024-01-16T04:00:58.390Z,54.32
2024-01-16T04:02:30.249Z,53.83
2024-01-16T04:04:01.907Z,53.68
2024-01-16T04:05:33.534Z,54.21
2024-01-16T04:07:05.563Z,54.23
2024-01-16T04:08:37.150Z,54.32
2024-01-16T04:10:08.890Z,54.28
2024-01-16T04:11:40.413Z,53.99
2024-01-16T04:13:11.987Z,54.49
2024-01-16T04:14:43.700Z,54.08
2024-01-16T04:16:15.295Z,54.36
2024-01-16T04:17:46.896Z,54.33
2024-01-16T04:19:18.633Z,54.35
2024-01-16T04:20:51.322Z,54.35
2024-01-16T04:22:22.968Z,54.33
2024-01-16T04:23:54.650Z,54.10
2024-01-16T04:25:26.972Z,53.84
2024-01-16T04:26:58.548Z,54.47
2024-01-16T04:28:30.624Z,53.91
2024-01-16T04:30:02.397Z,54.34
2024-01-16T04:31:35.049Z,53.82
2024-01-16T04:33:06.774Z,53.98
2024-01-16T04:34:38.451Z,54.63
2024-01-16T04:36:10.916Z,54.34
2024-01-16T04:37:42.469Z,54.12
2024-01-16T04:39:14.959Z,54.67
2024-01-16T04:40:46.679Z,54.18
2024-01-16T04:42:19.259Z,54.85
2024-01-16T04:43:54.229Z,54.94
2024-01-16T04:45:25.820Z,54.45
2024-01-16T04:46:57.430Z,54.83
2024-01-16T04:48:29.018Z,55.01
2024-01-16T04:50:00.598Z,54.67
2024-01-16T04:51:32.212Z,55.17
2024-01-16T04:53:03.865Z,55.09
2024-01-16T04:54:35.385Z,54.69
2024-01-16T04:56:06.965Z,54.52
2024-01-16T04:57:38.614Z,54.79
2024-01-16T04:59:10.194Z,55.24
2024-01-16T05:00:41.797Z,54.97
2024-01-16T05:02:15.643Z,54.67
2024-01-16T05:03:47.394Z,55.22
2024-01-16T05:05:19.025Z,54.82
2024-01-16T05:06:51.949Z,54.66
2024-01-16T05:08:24.908Z,55.18
2024-01-16T05:09:56.962Z,55.09
2024-01-16T05:11:28.654Z,54.77
2024-01-16T05:13:00.278Z,54.73
2024-01-16T05:14:32.069Z,54.83
2024-01-16T05:16:04.319Z,55.19
2024-01-16T05:17:35.995Z,54.49
2024-01-16T05:19:07.675Z,54.73
2024-01-16T05:20:39.419Z,54.61
2024-01-16T05:22:11.688Z,54.72
2024-01-16T05:23:43.247Z,54.77
2024-01-16T05:25:14.976Z,54.44
2024-01-16T05:26:46.586Z,54.63
2024-01-16T05:28:18.141Z,54.60
2024-01-16T05:29:49.875Z,55.33
2024-01-16T05:31:21.957Z,55.31
2024-01-16T05:32:54.395Z,55.14
2024-01-16T05:34:27.168Z,55.34
2024-01-16T05:35:59.019Z,55.28
2024-01-16T05:37:30.873Z,55.13
2024-01-16T05:39:03.118Z,54.98
2024-01-16T05:40:34.688Z,54.48
2024-01-16T05:42:06.511Z,54.68
2024-01-16T05:43:38.357Z,55.07
2024-01-16T05:45:10.172Z,55.29
2024-01-16T05:46:42.325Z,54.86
2024-01-16T05:48:13.971Z,54.86
2024-01-16T05:49:46.246Z,54.43
2024-01-16T05:51:18.152Z,55.13
2024-01-16T05:52:50.214Z,55.48
2024-01-16T05:54:21.781Z,54.75
2024-01-16T05:55:55.067Z,55.35
2024-01-16T05:57:28.848Z,54.92
2024-01-16T05:59:00.809Z,55.06
2024-01-16T06:00:34.711Z,54.84
2024-01-16T06:02:06.763Z,54.62
2024-01-16T06:03:38.361Z,54.88
2024-01-16T06:05:10.074Z,55.08
2024-01-16T06:06:45.883Z,55.28
2024-01-16T06:08:17.769Z,55.14
2024-01-16T06:09:49.507Z,54.98
2024-01-16T06:11:30.545Z,55.30
2024-01-16T06:13:02.088Z,55.06
2024-01-16T06:14:34.426Z,54.86
2024-01-16T06:16:11.719Z,55.32
2024-01-16T06:17:45.611Z,54.86
2024-01-16T06:19:17.704Z,54.75
2024-01-16T06:20:50.127Z,54.62
2024-01-16T06:22:21.922Z,54.49
2024-01-16T06:23:53.696Z,54.61
2024-01-16T06:25:25.525Z,54.85
2024-01-16T06:26:57.348Z,54.86
2024-01-16T06:28:29.395Z,55.10
2024-01-16T06:30:01.747Z,55.20
2024-01-16T06:31:33.787Z,55.22
2024-01-16T06:33:06.359Z,55.27
2024-01-16T06:34:38.188Z,55.15
2024-01-16T06:36:10.136Z,55.26
2024-01-16T06:37:41.792Z,55.03
2024-01-16T06:39:15.200Z,55.13
2024-01-16T06:40:47.093Z,55.25
2024-01-16T06:42:18.977Z,55.25
2024-01-16T06:43:50.813Z,54.69
2024-01-16T06:45:23.023Z,54.99
2024-01-16T06:46:54.818Z,54.91
2024-01-16T06:48:26.546Z,55.11
2024-01-16T06:49:58.750Z,55.20
2024-01-16T06:51:30.529Z,55.38
2024-01-16T06:53:03.837Z,55.26
2024-01-16T06:54:35.617Z,55.26
2024-01-16T06:56:08.059Z,55.53
2024-01-16T06:57:39.837Z,55.40
2024-01-16T06:59:12.476Z,55.08
2024-01-16T07:00:44.529Z,54.97
2024-01-16T07:02:16.484Z,55.04
2024-01-16T07:03:51.386Z,54.96
2024-01-16T07:05:23.677Z,54.89
2024-01-16T07:06:55.497Z,54.75
2024-01-16T07:08:27.220Z,54.66
2024-01-16T07:09:58.987Z,54.61
2024-01-16T07:11:30.786Z,54.36
2024-01-16T07:13:05.969Z,54.33
2024-01-16T07:14:39.403Z,54.41
2024-01-16T07:16:12.288Z,54.26
2024-01-16T07:17:44.562Z,54.01
2024-01-16T07:19:16.392Z,54.12
2024-01-16T07:20:48.353Z,53.95
2024-01-16T07:22:20.278Z,53.86
2024-01-16T07:23:52.057Z,53.94
2024-01-16T07:25:23.938Z,54.05
2024-01-16T07:26:56.151Z,54.22
2024-01-16T07:28:28.059Z,54.44
2024-01-16T07:30:00.612Z,54.36
2024-01-16T07:31:32.956Z,54.46
2024-01-16T07:33:05.552Z,54.58
2024-01-16T07:34:37.282Z,54.52
2024-01-16T07:36:09.688Z,54.79
2024-01-16T07:37:41.516Z,54.72
2024-01-16T07:39:13.446Z,54.56
2024-01-16T07:40:45.027Z,54.60
2024-01-16T07:42:16.818Z,54.75
2024-01-16T07:43:50.172Z,54.16
2024-01-16T07:45:22.014Z,53.80
2024-01-16T07:46:56.427Z,53.99
2024-01-16T07:48:28.258Z,54.27
2024-01-16T07:50:00.953Z,54.43
2024-01-16T07:51:32.567Z,54.42
2024-01-16T07:53:04.276Z,54.53
2024-01-16T07:54:36.583Z,54.40
2024-01-16T07:56:08.727Z,54.44
2024-01-16T07:57:40.310Z,54.50
2024-01-16T07:59:12.153Z,54.38
2024-01-16T08:00:44.335Z,54.43
2024-01-16T08:02:16.778Z,54.55
2024-01-16T08:03:48.779Z,54.26
2024-01-16T08:05:23.212Z,54.18
2024-01-16T08:06:55.443Z,54.26
2024-01-16T08:08:27.368Z,54.51
2024-01-16T08:09:59.353Z,54.34
2024-01-16T08:11:32.818Z,54.33
2024-01-16T08:13:04.902Z,54.02
2024-01-16T08:14:36.521Z,54.04
2024-01-16T08:16:11.567Z,54.04
2024-01-16T08:17:44.355Z,54.16
2024-01-16T08:19:16.325Z,53.88
2024-01-16T08:20:48.359Z,53.59
2024-01-16T08:22:20.579Z,53.73
2024-01-16T08:23:52.452Z,53.39
2024-01-16T08:25:24.147Z,53.37
2024-01-16T08:26:58.658Z,53.36
2024-01-16T08:28:30.368Z,53.43
2024-01-16T08:30:02.134Z,53.29
2024-01-16T08:31:33.643Z,53.41
2024-01-16T08:33:05.583Z,53.40
2024-01-16T08:34:37.489Z,53.67
2024-01-16T08:36:09.824Z,53.63
2024-01-16T08:37:41.459Z,53.80
2024-01-16T08:39:14.747Z,53.68
2024-01-16T08:40:46.458Z,53.58
2024-01-16T08:42:19.374Z,53.38
2024-01-16T08:43:52.508Z,53.32
2024-01-16T08:45:24.256Z,53.58
2024-01-16T08:46:56.134Z,53.41
2024-01-16T08:48:28.085Z,53.47
2024-01-16T08:50:00.238Z,53.52
2024-01-16T08:51:32.103Z,53.54
2024-01-16T08:53:03.928Z,53.60
2024-01-16T08:54:35.700Z,53.09
2024-01-16T08:56:10.649Z,53.32
2024-01-16T08:57:43.014Z,53.62
2024-01-16T08:59:14.960Z,53.49
2024-01-16T09:00:47.350Z,53.39
2024-01-16T09:02:19.289Z,53.55
2024-01-16T09:03:51.207Z,53.66
2024-01-16T09:05:26.798Z,53.50
2024-01-16T09:06:58.653Z,53.55
2024-01-16T09:08:31.035Z,53.09
2024-01-16T09:10:02.714Z,53.27
2024-01-16T09:11:35.084Z,53.29
2024-01-16T09:13:06.815Z,53.24
2024-01-16T09:14:38.526Z,53.32
2024-01-16T09:16:10.801Z,53.27
2024-01-16T09:17:43.822Z,53.22
2024-01-16T09:19:15.611Z,53.23
2024-01-16T09:20:47.994Z,53.45
2024-01-16T09:22:19.917Z,53.10
2024-01-16T09:23:52.244Z,53.28
2024-01-16T09:25:26.161Z,53.20
2024-01-16T09:26:59.583Z,53.45
2024-01-16T09:28:31.242Z,53.02
2024-01-16T09:30:02.971Z,53.18
2024-01-16T09:31:34.602Z,53.42
2024-01-16T09:33:08.634Z,52.98
2024-01-16T09:34:41.241Z,53.35
2024-01-16T09:36:13.067Z,53.09
2024-01-16T09:37:45.005Z,53.10
2024-01-16T09:39:19.342Z,53.19
2024-01-16T09:40:53.636Z,52.96
2024-01-16T09:42:25.832Z,53.18
2024-01-16T09:43:57.806Z,53.30
2024-01-16T09:45:29.833Z,53.12
2024-01-16T09:47:01.542Z,53.13
2024-01-16T09:48:33.766Z,53.39
2024-01-16T09:50:05.986Z,53.01
2024-01-16T09:51:37.652Z,53.07
2024-01-16T09:53:09.212Z,53.23
2024-01-16T09:54:40.883Z,53.15
2024-01-16T09:56:16.369Z,53.14
2024-01-16T09:57:48.145Z,52.77
2024-01-16T09:59:19.921Z,52.79
2024-01-16T10:00:52.169Z,52.85
2024-01-16T10:02:23.876Z,53.16
2024-01-16T10:03:55.913Z,52.71
2024-01-16T10:05:27.642Z,52.38
2024-01-16T10:06:59.319Z,52.45
2024-01-16T10:08:31.457Z,52.52
2024-01-16T10:10:03.115Z,52.27
2024-01-16T10:11:35.650Z,52.63
2024-01-16T10:13:07.313Z,52.35
2024-01-16T10:14:40.488Z,52.21
2024-01-16T10:16:12.079Z,52.35
2024-01-16T10:17:43.762Z,52.13
2024-01-16T10:19:15.479Z,52.29
2024-01-16T10:20:47.212Z,52.84
2024-01-16T10:22:26.850Z,52.80
2024-01-16T10:24:01.040Z,52.46
2024-01-16T10:25:32.716Z,52.80
2024-01-16T10:27:04.624Z,52.01
2024-01-16T10:28:36.924Z,51.89
2024-01-16T10:30:08.905Z,52.44
2024-01-16T10:31:41.666Z,51.82
2024-01-16T10:33:16.704Z,51.42
2024-01-16T10:34:48.765Z,52.03
2024-01-16T10:36:22.031Z,52.09
2024-01-16T10:37:54.947Z,51.84
2024-01-16T10:39:35.572Z,52.05
2024-01-16T10:41:19.545Z,51.71
2024-01-16T10:43:00.908Z,51.92
2024-01-16T10:44:33.455Z,52.11
2024-01-16T10:46:24.500Z,52.30
2024-01-16T10:48:04.655Z,52.24
2024-01-16T10:49:43.150Z,51.75
2024-01-16T10:51:18.079Z,51.22
2024-01-16T10:52:53.749Z,51.49
2024-01-16T10:54:25.339Z,51.66
2024-01-16T10:55:56.908Z,50.93
2024-01-16T10:57:28.516Z,50.73
2024-01-16T10:59:00.139Z,50.82
2024-01-16T11:00:32.366Z,50.55
2024-01-16T11:02:04.032Z,51.22
2024-01-16T11:03:38.455Z,50.77
2024-01-16T11:05:12.699Z,51.06
2024-01-16T11:06:44.550Z,50.87
2024-01-16T11:08:18.470Z,50.77
2024-01-16T11:09:50.229Z,50.75
2024-01-16T11:11:21.922Z,50.25
2024-01-16T11:12:53.586Z,50.58
2024-01-16T11:14:25.580Z,50.47
2024-01-16T11:15:57.204Z,50.44
2024-01-16T11:17:30.540Z,50.47
2024-01-16T11:20:55.839Z,50.56
2024-01-16T11:22:29.819Z,50.72
2024-01-16T11:24:01.767Z,50.99
2024-01-16T11:25:36.801Z,50.91
2024-01-16T11:27:09.409Z,50.89
2024-01-16T11:28:41.112Z,50.88
2024-01-16T11:30:13.845Z,50.78
2024-01-16T11:31:45.653Z,50.95
2024-01-16T11:33:32.566Z,50.88
2024-01-16T11:35:05.634Z,50.41
2024-01-16T11:36:56.622Z,49.85
2024-01-16T11:38:28.588Z,49.61
2024-01-16T11:40:18.140Z,50.45
2024-01-16T11:41:52.790Z,50.01
2024-01-16T11:43:35.411Z,50.32
2024-01-16T11:45:08.679Z,49.70
2024-01-16T11:47:16.055Z,49.89
2024-01-16T11:48:52.026Z,49.89
2024-01-16T11:50:30.573Z,49.36
2024-01-16T11:52:03.552Z,49.68
2024-01-16T11:53:37.698Z,49.28
2024-01-16T11:55:34.196Z,49.50
2024-01-16T11:57:24.452Z,49.16
2024-01-16T11:58:56.128Z,49.34
2024-01-16T12:00:27.775Z,48.45
2024-01-16T12:02:01.139Z,48.15
2024-01-16T12:03:35.678Z,47.76
2024-01-16T12:05:08.348Z,47.65
2024-01-16T12:06:41.704Z,48.02
2024-01-16T12:08:15.097Z,48.13
2024-01-16T12:09:46.634Z,48.00
2024-01-16T12:11:22.590Z,47.96
2024-01-16T12:13:01.275Z,47.61
2024-01-16T12:14:34.795Z,47.66
2024-01-16T12:16:06.626Z,47.35
2024-01-16T12:17:39.139Z,47.26
2024-01-16T12:19:11.334Z,47.19
2024-01-16T12:20:43.192Z,47.50
2024-01-16T12:22:14.903Z,47.18
2024-01-16T12:23:53.051Z,47.17
2024-01-16T12:26:00.349Z,47.55
2024-01-16T12:27:24.636Z,47.27
2024-01-16T12:28:59.796Z,47.35
2024-01-16T12:30:35.670Z,46.94
2024-01-16T12:32:13.248Z,47.08
2024-01-16T12:33:51.895Z,47.37
2024-01-16T12:35:30.089Z,47.40
2024-01-16T12:37:08.156Z,47.09
2024-01-16T12:38:40.828Z,47.00
2024-01-16T12:40:15.861Z,46.90
2024-01-16T12:41:47.933Z,46.92
2024-01-16T12:43:19.741Z,46.87
2024-01-16T12:44:51.472Z,47.06
2024-01-16T12:46:23.048Z,46.70
2024-01-16T12:47:55.201Z,46.70
2024-01-16T12:49:26.973Z,46.87
2024-01-16T12:51:04.719Z,46.80
2024-01-16T12:52:37.484Z,46.70
2024-01-16T12:54:16.395Z,46.43
2024-01-16T12:55:48.313Z,46.77
2024-01-16T12:57:21.319Z,46.57
2024-01-16T12:58:53.585Z,46.41
2024-01-16T13:00:25.860Z,46.49
2024-01-16T13:01:57.438Z,46.27
2024-01-16T13:03:29.063Z,46.66
2024-01-16T13:05:01.606Z,46.50
2024-01-16T13:06:33.676Z,46.39
2024-01-16T13:08:05.782Z,46.47
2024-01-16T13:09:38.156Z,46.40
2024-01-16T13:11:11.510Z,46.12
2024-01-16T13:12:43.355Z,46.11
2024-01-16T13:14:15.128Z,46.05
2024-01-16T13:15:46.734Z,46.14
2024-01-16T13:17:18.565Z,45.92
2024-01-16T13:18:50.155Z,45.73
2024-01-16T13:20:21.783Z,45.96
2024-01-16T13:21:53.461Z,45.46
2024-01-16T13:23:28.433Z,45.52
2024-01-16T13:25:08.576Z,45.79
2024-01-16T13:26:41.123Z,45.64
2024-01-16T13:28:13.189Z,45.87
2024-01-16T13:29:46.003Z,45.84
2024-01-16T13:31:17.609Z,45.74
2024-01-16T13:32:49.297Z,45.37
2024-01-16T13:34:24.421Z,45.59
2024-01-16T13:35:57.949Z,45.65
2024-01-16T13:37:29.637Z,45.33
2024-01-16T13:39:01.277Z,45.14
2024-01-16T13:40:33.289Z,45.32
2024-01-16T13:42:08.196Z,44.94
2024-01-16T13:43:39.968Z,44.97
2024-01-16T13:45:14.936Z,45.44
2024-01-16T13:46:57.952Z,44.78
2024-01-16T13:48:38.481Z,44.91
2024-01-16T13:50:10.699Z,45.30
2024-01-16T13:51:44.732Z,44.96
2024-01-16T13:53:16.434Z,44.85
2024-01-16T13:54:48.060Z,45.38
2024-01-16T13:56:29.359Z,44.90
2024-01-16T13:58:11.921Z,44.74
2024-01-16T13:59:43.480Z,44.81
2024-01-16T14:01:15.155Z,44.87
2024-01-16T14:02:47.781Z,45.31
2024-01-16T14:04:19.686Z,45.02
2024-01-16T14:05:51.386Z,44.94
2024-01-16T14:07:23.529Z,45.28
2024-01-16T14:08:55.200Z,45.41
2024-01-16T14:10:26.886Z,45.29
2024-01-16T14:11:58.465Z,44.76
2024-01-16T14:13:31.018Z,44.97
2024-01-16T14:15:05.581Z,45.15
2024-01-16T14:16:48.137Z,45.14
2024-01-16T14:18:24.442Z,44.68
2024-01-16T14:19:56.199Z,44.82
2024-01-16T14:21:27.794Z,44.73
2024-01-16T14:23:00.110Z,44.79
2024-01-16T14:24:31.665Z,45.28
2024-01-16T14:26:04.347Z,45.13
2024-01-16T14:27:35.949Z,44.80
2024-01-16T14:29:07.669Z,44.56
2024-01-16T14:30:42.143Z,44.92
2024-01-16T14:32:15.758Z,44.53
2024-01-16T14:33:47.530Z,44.49
2024-01-16T14:35:21.047Z,44.69
2024-01-16T14:36:52.873Z,44.43
2024-01-16T14:38:24.403Z,45.08
2024-01-16T14:39:56.090Z,44.62
2024-01-16T14:41:28.001Z,45.20
2024-01-16T14:43:00.290Z,45.42
2024-01-16T14:44:32.041Z,44.86
2024-01-16T14:46:04.839Z,44.48
2024-01-16T14:47:36.708Z,44.96
2024-01-16T14:49:09.055Z,45.45
2024-01-16T14:50:40.818Z,45.19
2024-01-16T14:52:13.664Z,45.04
2024-01-16T14:53:45.729Z,45.29
2024-01-16T14:55:17.360Z,45.47
2024-01-16T14:56:50.226Z,45.32
2024-01-16T14:58:24.229Z,45.88
2024-01-16T14:59:55.926Z,45.79
2024-01-16T15:01:28.188Z,44.96
2024-01-16T15:02:59.970Z,45.54
2024-01-16T15:04:32.434Z,45.60
2024-01-16T15:06:06.276Z,45.49
2024-01-16T15:07:40.465Z,45.15
2024-01-16T15:09:19.641Z,45.23
2024-01-16T15:10:51.427Z,45.61
2024-01-16T15:12:22.968Z,45.88
2024-01-16T15:13:56.049Z,45.19
2024-01-16T15:15:27.901Z,45.45
2024-01-16T15:16:59.635Z,45.14
2024-01-16T15:18:31.359Z,45.61
2024-01-16T15:20:04.593Z,44.97
2024-01-16T15:21:38.135Z,45.22
2024-01-16T15:23:09.911Z,45.12
2024-01-16T15:24:41.967Z,44.88
2024-01-16T15:26:20.205Z,45.45
2024-01-16T15:27:54.944Z,45.59
2024-01-16T15:29:30.657Z,45.65
2024-01-16T15:31:08.889Z,45.87
2024-01-16T15:32:40.815Z,45.87
2024-01-16T15:34:15.899Z,45.67
2024-01-16T15:35:49.078Z,45.68
2024-01-16T15:37:20.735Z,45.33
2024-01-16T15:38:52.280Z,45.73
2024-01-16T15:40:24.499Z,45.48
2024-01-16T15:41:56.130Z,45.92
2024-01-16T15:43:27.818Z,45.71
2024-01-16T15:45:00.068Z,45.95
2024-01-16T15:46:31.769Z,45.81
2024-01-16T15:48:03.702Z,45.82
2024-01-16T15:49:36.768Z,46.05
2024-01-16T15:51:10.517Z,46.37
2024-01-16T15:52:42.594Z,45.83
2024-01-16T15:54:14.154Z,45.90
2024-01-16T15:55:45.734Z,46.18
2024-01-16T15:57:17.715Z,45.94
2024-01-16T15:58:50.612Z,46.01
2024-01-16T16:00:24.269Z,46.05
2024-01-16T16:01:55.813Z,45.90
2024-01-16T16:03:27.616Z,46.10
2024-01-16T16:04:59.316Z,46.18
2024-01-16T16:06:30.950Z,45.83
2024-01-16T16:08:02.888Z,46.18
2024-01-16T16:09:35.346Z,46.33
2024-01-16T16:11:07.081Z,46.48
2024-01-16T16:12:39.069Z,46.37
2024-01-16T16:14:10.883Z,46.41
2024-01-16T16:15:42.788Z,46.63
2024-01-16T16:17:14.377Z,46.42
2024-01-16T16:18:47.205Z,46.44
2024-01-16T16:20:20.831Z,46.38
2024-01-16T16:21:53.910Z,46.29
2024-01-16T16:23:26.079Z,46.69
2024-01-16T16:24:58.774Z,46.68
2024-01-16T16:26:30.481Z,46.53
2024-01-16T16:28:03.162Z,46.45
2024-01-16T16:29:34.870Z,46.52
2024-01-16T16:31:06.579Z,46.29
2024-01-16T16:32:38.555Z,46.41
2024-01-16T16:34:16.285Z,46.53
2024-01-16T16:35:48.528Z,46.71
2024-01-16T16:37:20.523Z,46.90
2024-01-16T16:38:52.153Z,46.81
2024-01-16T16:40:23.954Z,46.73
2024-01-16T16:41:55.703Z,46.98
2024-01-16T16:43:27.274Z,47.08
2024-01-16T16:45:00.416Z,46.94
2024-01-16T16:46:32.202Z,46.81
2024-01-16T16:48:04.098Z,46.71
2024-01-16T16:49:36.584Z,46.45
2024-01-16T16:51:09.041Z,46.84
2024-01-16T16:52:40.590Z,46.62
2024-01-16T16:54:13.224Z,46.71
2024-01-16T16:55:44.879Z,47.13
2024-01-16T16:57:16.453Z,47.05
2024-01-16T16:58:48.747Z,46.89
2024-01-16T17:00:20.654Z,46.84
2024-01-16T17:01:53.333Z,46.93
2024-01-16T17:03:25.046Z,46.59
2024-01-16T17:04:56.923Z,46.82
2024-01-16T17:06:28.710Z,47.18
2024-01-16T17:08:00.351Z,47.26
2024-01-16T17:09:31.911Z,47.14
2024-01-16T17:11:05.016Z,46.94
2024-01-16T17:12:36.620Z,47.09
2024-01-16T17:14:08.701Z,46.94
2024-01-16T17:15:40.421Z,47.00
2024-01-16T17:17:12.369Z,46.74
2024-01-16T17:18:44.119Z,46.70
2024-01-16T17:20:15.879Z,47.09
2024-01-16T17:21:47.605Z,46.79
2024-01-16T17:23:19.725Z,47.15
2024-01-16T17:24:51.314Z,47.22
2024-01-16T17:26:23.372Z,47.06
2024-01-16T17:27:55.724Z,47.02
2024-01-16T17:29:27.300Z,47.01
2024-01-16T17:31:03.226Z,47.02
2024-01-16T17:32:35.036Z,47.12
2024-01-16T17:34:07.048Z,47.17
2024-01-16T17:35:39.247Z,47.13
2024-01-16T17:37:10.823Z,47.49
2024-01-16T17:38:43.325Z,47.31
2024-01-16T17:40:15.036Z,47.40
2024-01-16T17:41:47.046Z,47.26
2024-01-16T17:43:19.031Z,47.15
2024-01-16T17:44:50.814Z,46.95
2024-01-16T17:46:23.363Z,46.76
2024-01-16T17:47:54.972Z,47.47
2024-01-16T17:49:26.790Z,46.74
2024-01-16T17:50:58.465Z,47.45
2024-01-16T17:52:32.674Z,47.28
2024-01-16T17:54:04.892Z,46.88
2024-01-16T17:55:37.113Z,47.04
2024-01-16T17:57:09.017Z,47.21
2024-01-16T17:58:40.758Z,47.31
2024-01-16T18:00:12.577Z,47.12
2024-01-16T18:01:44.164Z,47.19
2024-01-16T18:03:27.817Z,47.17
2024-01-16T18:05:17.810Z,47.59
2024-01-16T18:06:50.503Z,47.15
2024-01-16T18:08:23.761Z,47.33
2024-01-16T18:09:55.472Z,47.26
2024-01-16T18:11:27.554Z,47.32
2024-01-16T18:12:59.294Z,47.42
2024-01-16T18:26:58.937Z,48.02
2024-01-16T18:28:30.910Z,48.08
2024-01-16T18:30:02.610Z,47.54
2024-01-16T18:31:35.361Z,48.07
2024-01-16T18:33:07.420Z,48.09
2024-01-16T18:34:39.658Z,47.91
2024-01-16T18:36:11.831Z,48.20
2024-01-16T18:37:44.006Z,48.37
2024-01-16T18:39:16.984Z,48.06
2024-01-16T18:40:49.081Z,48.44
2024-01-16T18:42:23.722Z,48.32
2024-01-16T18:43:55.387Z,48.36
2024-01-16T18:45:27.464Z,48.24
2024-01-16T18:46:59.049Z,48.33
2024-01-16T18:48:31.242Z,47.62
2024-01-16T18:50:06.674Z,48.63
2024-01-16T18:51:38.322Z,48.49
2024-01-16T18:53:09.957Z,48.58
2024-01-16T18:54:41.523Z,48.56
2024-01-16T19:09:54.340Z,49.45
2024-01-16T19:11:25.986Z,49.28
2024-01-16T19:12:57.594Z,48.91
2024-01-16T19:14:29.347Z,48.92
2024-01-16T19:16:01.861Z,49.20
2024-01-16T19:17:35.297Z,49.05
2024-01-16T19:19:08.440Z,48.82
2024-01-16T19:20:40.350Z,49.10
2024-01-16T19:22:11.957Z,49.24
2024-01-16T19:23:44.172Z,49.16
2024-01-16T19:25:17.715Z,48.63
2024-01-16T19:26:49.693Z,49.00
2024-01-16T19:28:21.625Z,48.89
2024-01-16T19:29:53.240Z,48.61
2024-01-16T19:31:24.878Z,49.20
2024-01-16T19:32:57.686Z,49.42
2024-01-16T19:34:29.473Z,49.33
2024-01-16T19:36:02.792Z,49.27
2024-01-16T19:37:35.502Z,49.58
2024-01-16T19:39:16.273Z,49.59
2024-01-16T19:40:47.955Z,48.92
2024-01-16T19:42:20.458Z,49.00
2024-01-16T19:56:00.323Z,48.84
2024-01-16T19:57:32.045Z,49.41
2024-01-16T19:59:05.902Z,48.79
2024-01-16T20:00:41.805Z,49.30
2024-01-16T20:02:14.431Z,48.79
2024-01-16T20:03:46.097Z,48.88
2024-01-16T20:05:18.185Z,48.83
2024-01-16T20:06:53.302Z,49.28
2024-01-16T20:08:27.534Z,49.09
2024-01-16T20:09:59.913Z,49.29
2024-01-16T20:11:31.950Z,48.83
2024-01-16T20:13:05.174Z,48.89
2024-01-16T20:14:38.504Z,48.68
2024-01-16T20:16:10.147Z,49.73
2024-01-16T20:17:42.426Z,49.03
2024-01-16T20:19:14.610Z,49.05
2024-01-16T20:20:47.393Z,49.38
2024-01-16T20:22:19.580Z,49.60
2024-01-16T20:23:51.170Z,49.40
2024-01-16T20:25:25.080Z,49.32
2024-01-16T20:26:56.783Z,49.36
2024-01-16T20:28:28.313Z,49.22
2024-01-16T20:30:00.055Z,49.05
2024-01-16T20:31:33.174Z,49.12
2024-01-16T20:33:05.232Z,49.43
2024-01-16T20:34:37.366Z,49.61